Broadacre, Colorado
Current Conditions -  °F | °C
As of 5:53 PM on Tuesday 25 Nov 2014 (Local Time) from KPUB Reporting Station
Clear Clear  
Wind Chill: 44°   Ceiling: Unl
Heat Index: 47°   Visibility: 10mi
Dew Point: 19°   Wind: 7mph
Humidity: 33%   Direction: 330°NNW
Pressure: 29.93"   Gusts: NA
Location:  38.0104°N, 104.392°W
Report Text: KPUB 260053Z 33006KT 10SM CLR 08/M07 A2993 RMK AO2 SLP151 T00831072
Loading
Personal Weather Stations






























Interactive Weather Map New forecast layout! Learn more

10-Day Weather Forecast

Advertisements
Track Severe Weather on mobile